createdAt,value
2023-03-01T00:03:39.981Z,38.50
2023-03-01T00:07:42.879Z,47.92
2023-03-01T00:11:44.781Z,33.55
2023-03-01T00:15:46.219Z,41.83
2023-03-01T00:19:47.702Z,46.17
2023-03-01T00:23:50.692Z,35.15
2023-03-01T00:27:52.401Z,34.15
2023-03-01T00:31:53.873Z,52.78
2023-03-01T00:35:55.481Z,39.00
2023-03-01T00:39:58.256Z,42.45
2023-03-01T00:43:59.705Z,36.42
2023-03-01T00:48:01.167Z,52.47
2023-03-01T00:52:02.672Z,37.72
2023-03-01T00:56:07.493Z,42.33
2023-03-01T01:00:10.217Z,42.92
2023-03-01T01:04:13.885Z,33.58
2023-03-01T01:08:15.345Z,32.92
2023-03-01T01:12:18.187Z,54.13
2023-03-01T01:16:21.335Z,37.20
2023-03-01T01:20:22.806Z,42.53
2023-03-01T01:24:24.406Z,44.35
2023-03-01T01:28:27.206Z,58.85
2023-03-01T01:32:29.555Z,35.80
2023-03-01T01:36:31.490Z,45.50
2023-03-01T01:40:33.161Z,40.97
2023-03-01T01:44:36.280Z,39.03
2023-03-01T01:48:42.612Z,39.53
2023-03-01T01:52:44.176Z,44.08
2023-03-01T01:56:49.891Z,38.88
2023-03-01T02:00:53.625Z,36.03
2023-03-01T02:05:07.342Z,42.50
2023-03-01T02:09:13.752Z,38.55
2023-03-01T02:13:15.569Z,38.72
2023-03-01T02:17:19.789Z,38.13
2023-03-01T02:21:43.596Z,58.60
2023-03-01T02:25:51.416Z,45.60
2023-03-01T02:29:55.702Z,41.53
2023-03-01T02:33:58.782Z,41.83
2023-03-01T02:38:01.936Z,43.47
2023-03-01T02:42:04.858Z,41.63
2023-03-01T02:46:09.846Z,53.08
2023-03-01T02:50:22.595Z,57.70
2023-03-01T02:58:27.375Z,37.75
2023-03-01T03:02:31.281Z,52.35
2023-03-01T03:06:33.138Z,34.70
2023-03-01T03:10:37.630Z,37.17
2023-03-01T03:14:39.081Z,38.45
2023-03-01T03:18:41.874Z,43.83
2023-03-01T03:22:43.347Z,42.92
2023-03-01T03:26:44.782Z,44.88
2023-03-01T03:30:46.310Z,53.97
2023-03-01T03:34:49.212Z,38.30
2023-03-01T03:38:50.846Z,41.88
2023-03-01T03:42:52.281Z,37.47
2023-03-01T03:46:53.699Z,48.40
2023-03-01T03:50:57.282Z,43.30
2023-03-01T03:54:58.754Z,52.72
2023-03-01T03:59:00.173Z,34.95
2023-03-01T04:03:01.640Z,41.70
2023-03-01T04:07:04.514Z,54.85
2023-03-01T04:11:07.050Z,45.95
2023-03-01T04:15:08.858Z,55.75
2023-03-01T04:19:10.287Z,39.90
2023-03-01T04:23:14.622Z,43.55
2023-03-01T04:27:16.056Z,52.97
2023-03-01T04:31:19.920Z,50.65
2023-03-01T04:35:21.361Z,61.75
2023-03-01T04:39:24.123Z,65.10
2023-03-01T04:43:25.543Z,37.70
2023-03-01T04:47:26.999Z,36.63
2023-03-01T04:51:28.529Z,46.90
2023-03-01T04:55:31.458Z,38.25
2023-03-01T04:59:33.096Z,47.00
2023-03-01T05:03:34.509Z,39.08
2023-03-01T05:07:35.947Z,40.15
2023-03-01T05:11:38.806Z,37.65
2023-03-01T05:15:40.560Z,46.50
2023-03-01T05:19:42.037Z,36.72
2023-03-01T05:23:43.532Z,59.15
2023-03-01T05:27:46.306Z,41.65
2023-03-01T05:31:47.769Z,42.40
2023-03-01T05:35:50.840Z,48.58
2023-03-01T05:39:52.355Z,41.28
2023-03-01T05:43:55.114Z,40.00
2023-03-01T05:47:56.550Z,38.33
2023-03-01T05:51:57.979Z,48.53
2023-03-01T05:55:59.417Z,39.40
2023-03-01T06:00:02.298Z,49.42
2023-03-01T06:04:04.739Z,47.55
2023-03-01T06:08:06.804Z,48.25
2023-03-01T06:12:08.392Z,48.03
2023-03-01T06:16:12.087Z,42.45
2023-03-01T06:20:15.805Z,40.10
2023-03-01T06:24:17.255Z,46.42
2023-03-01T06:28:18.801Z,49.45
2023-03-01T06:32:21.638Z,51.63
2023-03-01T06:36:23.105Z,40.45
2023-03-01T06:40:24.602Z,50.83
2023-03-01T06:44:26.269Z,51.05
2023-03-01T06:48:29.047Z,48.78
2023-03-01T06:52:31.746Z,37.00
2023-03-01T06:56:34.074Z,38.20
2023-03-01T07:00:35.679Z,58.55
2023-03-01T07:04:38.571Z,46.42
2023-03-01T07:08:40.262Z,48.42
2023-03-01T07:12:41.757Z,43.45
2023-03-01T07:16:43.278Z,51.72
2023-03-01T07:20:46.083Z,46.38
2023-03-01T07:24:47.554Z,46.60
2023-03-01T07:28:49.075Z,73.05
2023-03-01T07:32:50.647Z,35.20
2023-03-01T07:36:53.554Z,41.72
2023-03-01T07:40:58.557Z,49.50
2023-03-01T07:44:59.994Z,43.33
2023-03-01T07:49:01.468Z,39.90
2023-03-01T07:53:04.318Z,40.25
2023-03-01T07:57:05.758Z,41.08
2023-03-01T08:01:09.356Z,44.15
2023-03-01T08:05:11.284Z,38.05
2023-03-01T08:09:14.108Z,42.83
2023-03-01T08:13:15.552Z,36.25
2023-03-01T08:17:17.157Z,40.58
2023-03-01T08:21:19.683Z,37.92
2023-03-01T08:25:22.468Z,39.22
2023-03-01T08:29:24.299Z,41.17
2023-03-01T08:33:25.766Z,40.40
2023-03-01T08:37:27.317Z,37.63
2023-03-01T08:41:30.401Z,42.17
2023-03-01T08:45:31.920Z,34.72
2023-03-01T08:49:33.604Z,39.38
2023-03-01T08:53:35.141Z,45.05
2023-03-01T08:57:37.895Z,40.58
2023-03-01T09:01:39.881Z,38.35
2023-03-01T09:05:41.309Z,39.75
2023-03-01T09:09:42.811Z,42.85
2023-03-01T09:13:46.847Z,42.22
2023-03-01T09:17:48.340Z,35.40
2023-03-01T09:21:49.826Z,43.45
2023-03-01T09:25:51.243Z,37.00
2023-03-01T09:29:54.022Z,41.30
2023-03-01T09:33:55.906Z,39.47
2023-03-01T09:37:57.336Z,36.63
2023-03-01T09:42:03.801Z,30.33
2023-03-01T09:50:13.968Z,32.20
2023-03-01T09:54:15.542Z,35.60
2023-03-01T09:58:35.287Z,42.10
2023-03-01T10:02:44.582Z,32.20
2023-03-01T10:06:56.862Z,68.63
2023-03-01T10:15:06.328Z,33.30
2023-03-01T10:19:13.420Z,30.42
2023-03-01T10:23:15.044Z,39.00
2023-03-01T10:27:21.819Z,33.63
2023-03-01T10:31:26.759Z,33.20
2023-03-01T10:35:33.602Z,29.23
2023-03-01T10:39:35.763Z,26.00
2023-03-01T10:43:45.199Z,34.80
2023-03-01T10:47:46.668Z,27.30
2023-03-01T10:51:52.252Z,29.17
2023-03-01T10:55:59.854Z,30.80
2023-03-01T11:00:15.733Z,27.30
2023-03-01T11:04:17.217Z,38.33
2023-03-01T11:08:33.783Z,29.98
2023-03-01T11:12:36.378Z,30.10
2023-03-01T11:16:39.667Z,27.65
2023-03-01T11:20:42.259Z,28.15
2023-03-01T11:24:57.257Z,26.30
2023-03-01T11:29:07.140Z,28.65
2023-03-01T11:33:19.959Z,26.65
2023-03-01T11:37:29.784Z,26.30
2023-03-01T11:41:35.297Z,28.23
2023-03-01T11:45:48.446Z,42.03
2023-03-01T11:50:16.979Z,21.67
2023-03-01T11:54:29.440Z,22.52
2023-03-01T12:03:02.304Z,30.27
2023-03-01T12:07:11.645Z,24.05
2023-03-01T12:11:26.936Z,22.98
2023-03-01T12:15:45.871Z,27.55
2023-03-01T12:20:10.361Z,25.60
2023-03-01T12:24:37.470Z,23.48
2023-03-01T12:29:01.137Z,22.98
2023-03-01T12:33:18.496Z,26.05
2023-03-01T12:37:30.390Z,28.08
2023-03-01T12:41:44.350Z,22.27
2023-03-01T12:45:57.402Z,26.42
2023-03-01T12:50:05.679Z,22.02
2023-03-01T12:54:15.999Z,27.65
2023-03-01T12:58:25.050Z,26.75
2023-03-01T13:02:33.306Z,25.33
2023-03-01T13:06:46.103Z,24.58
2023-03-01T13:10:51.221Z,22.23
2023-03-01T13:14:55.163Z,23.67
2023-03-01T13:19:09.627Z,24.30
2023-03-01T13:23:24.468Z,24.67
2023-03-01T13:27:25.946Z,25.60
2023-03-01T13:32:01.005Z,23.83
2023-03-01T13:36:02.723Z,22.73
2023-03-01T13:40:45.587Z,28.42
2023-03-01T13:44:48.465Z,21.50
2023-03-01T13:48:53.228Z,21.92
2023-03-01T13:52:58.603Z,22.08
2023-03-01T13:57:02.588Z,20.17
2023-03-01T14:01:08.307Z,22.17
2023-03-01T14:05:10.482Z,23.20
2023-03-01T14:09:23.665Z,19.05
2023-03-01T14:13:39.888Z,22.75
2023-03-01T14:18:03.372Z,20.25
2023-03-01T14:22:17.525Z,18.17
2023-03-01T14:26:22.117Z,20.05
2023-03-01T14:30:26.572Z,20.55
2023-03-01T14:34:29.369Z,24.35
2023-03-01T14:38:34.877Z,24.08
2023-03-01T14:42:37.531Z,27.05
2023-03-01T14:46:41.813Z,23.67
2023-03-01T14:50:45.956Z,21.17
2023-03-01T14:54:50.093Z,20.05
2023-03-01T14:59:00.142Z,22.13
2023-03-01T15:03:06.260Z,22.35
2023-03-01T15:07:13.726Z,24.67
2023-03-01T15:11:22.119Z,25.95
2023-03-01T15:15:37.138Z,21.70
2023-03-01T15:19:38.900Z,22.90
2023-03-01T15:23:41.838Z,21.75
2023-03-01T15:27:46.941Z,18.50
2023-03-01T15:31:56.288Z,17.60
2023-03-01T15:35:59.505Z,22.92
2023-03-01T15:40:02.410Z,26.73
2023-03-01T15:44:16.459Z,19.13
2023-03-01T15:48:20.387Z,18.67
2023-03-01T15:52:25.958Z,21.48
2023-03-01T15:56:28.973Z,22.73
2023-03-01T16:00:30.866Z,21.27
2023-03-01T16:04:32.390Z,22.15
2023-03-01T16:08:33.956Z,19.77
2023-03-01T16:12:36.718Z,22.35
2023-03-01T16:16:38.245Z,20.60
2023-03-01T16:20:40.673Z,15.75
2023-03-01T16:24:42.122Z,19.20
2023-03-01T16:28:46.108Z,16.80
2023-03-01T16:32:49.545Z,19.13
2023-03-01T16:36:51.095Z,23.73
2023-03-01T16:40:52.850Z,22.92
2023-03-01T16:44:56.974Z,19.23
2023-03-01T16:48:58.440Z,18.75
2023-03-01T16:52:59.877Z,21.30
2023-03-01T16:57:01.341Z,18.42
2023-03-01T17:01:10.195Z,19.77
2023-03-01T17:05:11.771Z,26.85
2023-03-01T17:09:13.908Z,18.83
2023-03-01T17:13:15.797Z,28.45
2023-03-01T17:17:18.640Z,32.47
2023-03-01T17:21:20.160Z,25.63
2023-03-01T17:25:21.597Z,21.58
2023-03-01T17:29:23.073Z,22.80
2023-03-01T17:33:25.938Z,23.75
2023-03-01T17:37:27.375Z,22.05
2023-03-01T17:41:29.045Z,24.52
2023-03-01T17:45:30.757Z,25.33
2023-03-01T17:49:33.620Z,22.35
2023-03-01T17:53:35.818Z,31.50
2023-03-01T17:57:39.609Z,34.90
2023-03-01T18:01:42.151Z,27.30
2023-03-01T18:05:45.024Z,33.10
2023-03-01T18:09:46.460Z,32.30
2023-03-01T18:13:48.398Z,41.47
2023-03-01T18:17:49.856Z,39.78
2023-03-01T18:21:52.624Z,35.05
2023-03-01T18:25:58.577Z,35.90
2023-03-01T18:30:00.005Z,30.33
2023-03-01T18:34:01.504Z,42.08
2023-03-01T18:38:04.575Z,37.05
2023-03-01T18:42:06.138Z,34.83
2023-03-01T18:46:07.732Z,38.63
2023-03-01T18:50:10.231Z,30.35
2023-03-01T18:54:13.170Z,30.17
2023-03-01T18:58:14.631Z,35.83
2023-03-01T19:02:16.201Z,32.58
2023-03-01T19:06:19.040Z,30.63
2023-03-01T19:10:21.872Z,28.50
2023-03-01T19:14:23.454Z,31.15
2023-03-01T19:18:25.010Z,30.98
2023-03-01T19:22:27.323Z,35.88
2023-03-01T19:26:31.684Z,44.17
2023-03-01T19:30:33.370Z,34.17
2023-03-01T19:34:34.963Z,44.08
2023-03-01T19:38:37.544Z,37.10
2023-03-01T19:42:40.363Z,40.83
2023-03-01T19:46:42.016Z,38.50
2023-03-01T19:50:43.899Z,36.78
2023-03-01T19:54:45.421Z,31.55
2023-03-01T19:58:48.616Z,27.30
2023-03-01T20:02:50.154Z,32.10
2023-03-01T20:06:51.657Z,27.10
2023-03-01T20:10:53.111Z,24.67
2023-03-01T20:14:56.063Z,22.98
2023-03-01T20:18:59.834Z,23.33
2023-03-01T20:23:01.378Z,35.08
2023-03-01T20:27:02.889Z,35.20
2023-03-01T20:31:07.868Z,27.48
2023-03-01T20:35:10.455Z,23.63
2023-03-01T20:39:11.912Z,19.60
2023-03-01T20:43:13.327Z,26.65
2023-03-01T20:47:16.154Z,22.83
2023-03-01T20:51:18.063Z,25.73
2023-03-01T20:55:19.520Z,31.00
2023-03-01T20:59:21.146Z,24.55
2023-03-01T21:03:24.081Z,27.45
2023-03-01T21:07:25.542Z,36.78
2023-03-01T21:11:27.103Z,30.95
2023-03-01T21:15:29.721Z,27.05
2023-03-01T21:19:36.232Z,23.08
2023-03-01T21:23:39.462Z,26.85
2023-03-01T21:27:40.915Z,24.67
2023-03-01T21:31:42.411Z,24.83
2023-03-01T21:35:45.248Z,30.33
2023-03-01T21:39:46.708Z,34.83
2023-03-01T21:43:49.673Z,33.65
2023-03-01T21:47:51.120Z,30.65
2023-03-01T21:51:53.942Z,31.00
2023-03-01T21:55:55.432Z,39.53
2023-03-01T21:59:56.872Z,36.08
2023-03-01T22:04:00.139Z,35.10
2023-03-01T22:08:02.953Z,38.55
2023-03-01T22:12:04.885Z,29.55
2023-03-01T22:16:06.836Z,27.90
2023-03-01T22:20:09.839Z,36.30
2023-03-01T22:24:13.015Z,25.23
2023-03-01T22:28:14.520Z,23.38
2023-03-01T22:32:16.150Z,26.50
2023-03-01T22:36:17.896Z,23.75
2023-03-01T22:40:20.804Z,25.35
2023-03-01T22:44:23.933Z,27.30
2023-03-01T22:48:26.263Z,37.88
2023-03-01T22:52:27.697Z,29.95
2023-03-01T22:56:33.003Z,31.23
2023-03-01T23:00:34.648Z,25.52
2023-03-01T23:04:36.153Z,31.38
2023-03-01T23:08:37.763Z,34.90
2023-03-01T23:12:41.260Z,28.25
2023-03-01T23:16:42.891Z,62.25
2023-03-01T23:20:44.340Z,41.15
2023-03-01T23:24:45.995Z,37.25
2023-03-01T23:28:48.970Z,27.98
2023-03-01T23:32:50.393Z,38.47
2023-03-01T23:36:52.843Z,30.98
2023-03-01T23:40:54.283Z,41.35
2023-03-01T23:44:57.114Z,37.88
2023-03-01T23:48:59.000Z,32.15
2023-03-01T23:53:00.407Z,33.33
2023-03-01T23:57:01.879Z,31.17
